Time;durP1;ratioP1;P1;durP2;ratioP2;P2;SDS_P1;SDS_P2;PMS_P1;PMS_P2;Temp;Humidity;BMP_temperature;BMP_pressure;BME280_temperature;BME280_humidity;BME280_pressure;Samples;Min_cycle;Max_cycle;Signal;HPM_P1;HPM_P2
2021/03/15 00:01:01;;;;;;;2.65;1.35;;;7.20;84.40;;;;;;5075804;28;20076;-71
2021/03/15 00:03:27;;;;;;;4.05;1.20;;;7.20;84.40;;;;;;5075778;28;20037;-71
2021/03/15 00:05:52;;;;;;;4.20;1.40;;;7.30;84.50;;;;;;5075687;28;20032;-71
2021/03/15 00:08:19;;;;;;;4.28;1.38;;;7.30;84.50;;;;;;5075614;28;20032;-71
2021/03/15 00:10:45;;;;;;;3.75;1.52;;;7.40;84.50;;;;;;5075748;28;20036;-70
2021/03/15 00:13:11;;;;;;;3.28;1.50;;;7.40;84.50;;;;;;5074409;28;20028;-71
2021/03/15 00:15:36;;;;;;;2.15;1.40;;;7.50;84.60;;;;;;5074304;28;20052;-70
2021/03/15 00:18:03;;;;;;;3.35;1.70;;;7.40;84.60;;;;;;5074257;28;20076;-70
2021/03/15 00:20:29;;;;;;;6.45;1.77;;;7.50;84.70;;;;;;5075625;28;20477;-70
2021/03/15 00:22:54;;;;;;;4.53;1.67;;;7.50;84.70;;;;;;5074394;28;20138;-70
2021/03/15 00:25:20;;;;;;;4.60;1.90;;;7.50;84.70;;;;;;5075531;28;20033;-71
2021/03/15 00:27:46;;;;;;;3.53;1.70;;;7.50;84.70;;;;;;5075517;28;20036;-71
2021/03/15 00:30:15;;;;;;;4.03;2.10;;;7.50;84.60;;;;;;5075448;28;20131;-71
2021/03/15 00:32:42;;;;;;;4.13;2.00;;;7.50;84.70;;;;;;5075281;28;20167;-71
2021/03/15 00:35:09;;;;;;;3.97;2.30;;;7.50;84.80;;;;;;5075285;28;20107;-71
2021/03/15 00:37:37;;;;;;;5.28;2.30;;;7.50;84.80;;;;;;5075572;28;20384;-71
2021/03/15 00:40:05;;;;;;;3.63;1.67;;;7.50;84.80;;;;;;5075377;28;20479;-70
2021/03/15 00:42:31;;;;;;;2.85;1.63;;;7.50;84.80;;;;;;5075745;28;20487;-71
2021/03/15 00:44:56;;;;;;;4.18;2.38;;;7.40;84.70;;;;;;5075465;28;20111;-71
2021/03/15 00:47:22;;;;;;;4.93;2.30;;;7.40;84.80;;;;;;5075101;28;20028;-71
2021/03/15 00:49:48;;;;;;;4.07;1.92;;;7.30;84.70;;;;;;5073969;28;20024;-71
2021/03/15 00:52:13;;;;;;;4.07;1.90;;;7.30;84.90;;;;;;5075059;28;20107;-71
2021/03/15 00:54:39;;;;;;;4.57;2.00;;;7.30;85.00;;;;;;5074951;28;20031;-71
2021/03/15 00:57:05;;;;;;;3.92;1.85;;;7.30;85.10;;;;;;5074180;28;20476;-71
2021/03/15 00:59:30;;;;;;;4.45;1.80;;;7.30;85.10;;;;;;5073734;28;20025;-71
2021/03/15 01:01:56;;;;;;;3.28;1.83;;;7.30;85.20;;;;;;5074817;28;20052;-71
2021/03/15 01:04:22;;;;;;;5.32;2.20;;;7.20;85.20;;;;;;5073540;28;20082;-71
2021/03/15 01:06:47;;;;;;;3.45;1.88;;;7.20;85.30;;;;;;5073431;28;20090;-71
2021/03/15 01:09:13;;;;;;;4.32;2.15;;;7.30;85.40;;;;;;5074574;28;20104;-71
2021/03/15 01:11:40;;;;;;;5.03;2.05;;;7.30;85.50;;;;;;5073128;28;20021;-70
2021/03/15 01:14:07;;;;;;;3.33;1.95;;;7.20;85.40;;;;;;5074433;28;20029;-71
2021/03/15 01:16:33;;;;;;;4.22;2.00;;;7.20;85.40;;;;;;5074021;28;20042;-70
2021/03/15 01:18:59;;;;;;;2.67;1.85;;;7.20;85.40;;;;;;5074652;28;20133;-70
2021/03/15 01:21:25;;;;;;;3.28;1.98;;;7.30;85.50;;;;;;5073163;28;20024;-71
2021/03/15 01:23:51;;;;;;;5.47;1.90;;;7.30;85.50;;;;;;5074261;28;20039;-70
2021/03/15 01:26:17;;;;;;;3.53;1.90;;;7.30;85.50;;;;;;5072853;28;20101;-71
2021/03/15 01:28:43;;;;;;;4.10;2.33;;;7.30;85.40;;;;;;5074102;28;20033;-70
2021/03/15 01:31:09;;;;;;;3.50;2.20;;;7.30;85.40;;;;;;5074451;28;20078;-70
2021/03/15 01:33:35;;;;;;;4.72;2.30;;;7.30;85.50;;;;;;5074184;28;20024;-71
2021/03/15 01:36:00;;;;;;;3.65;2.10;;;7.30;85.60;;;;;;5074119;28;20089;-71
2021/03/15 01:38:26;;;;;;;4.60;2.35;;;7.30;85.60;;;;;;5072604;28;20494;-70
2021/03/15 01:40:52;;;;;;;2.83;1.90;;;7.30;85.70;;;;;;5073944;28;20024;-70
2021/03/15 01:43:17;;;;;;;3.05;2.05;;;7.30;85.80;;;;;;5072815;28;20033;-70
2021/03/15 01:45:43;;;;;;;3.90;1.75;;;7.30;85.80;;;;;;5074077;28;20104;-70
2021/03/15 01:48:12;;;;;;;4.60;2.17;;;7.30;85.70;;;;;;5072556;28;20480;-70
2021/03/15 01:50:42;;;;;;;2.72;1.83;;;7.40;85.70;;;;;;5072334;28;20017;-70
2021/03/15 01:53:08;;;;;;;4.47;2.03;;;7.40;85.80;;;;;;5073894;28;20132;-71
2021/03/15 01:55:36;;;;;;;5.93;2.40;;;7.30;85.70;;;;;;5071832;28;20031;-70
2021/03/15 01:58:02;;;;;;;3.17;1.85;;;7.30;85.70;;;;;;5072145;28;20476;-70
2021/03/15 02:00:27;;;;;;;4.25;2.13;;;7.30;85.60;;;;;;5073384;28;20035;-70
2021/03/15 02:03:07;;;;;;;2.70;1.80;;;7.30;85.60;;;;;;5073476;28;20028;-70
2021/03/15 02:05:35;;;;;;;3.45;2.17;;;7.30;85.70;;;;;;5071996;28;20154;-70
2021/03/15 02:08:02;;;;;;;2.97;1.60;;;7.30;85.80;;;;;;5073380;28;20036;-70
2021/03/15 02:10:28;;;;;;;3.20;1.95;;;7.30;85.70;;;;;;5072214;28;20078;-70
2021/03/15 02:13:20;;;;;;;3.03;1.98;;;7.40;85.80;;;;;;5071941;28;20035;-71
2021/03/15 02:16:07;;;;;;;3.08;2.05;;;7.40;85.80;;;;;;5071877;28;20028;-70
2021/03/15 02:18:53;;;;;;;5.97;2.20;;;7.30;85.60;;;;;;5071664;28;20037;-71
2021/03/15 02:21:43;;;;;;;4.25;1.85;;;7.30;85.70;;;;;;5072193;28;20029;-71
2021/03/15 02:24:18;;;;;;;2.55;1.88;;;7.30;85.80;;;;;;5071865;28;20024;-71
2021/03/15 02:27:18;;;;;;;3.55;1.98;;;7.20;85.80;;;;;;5071837;28;20059;-71
2021/03/15 02:30:08;;;;;;;2.10;1.77;;;7.20;86.10;;;;;;5072960;28;20082;-71
2021/03/15 02:32:53;;;;;;;1.58;1.48;;;7.10;86.10;;;;;;5071882;28;20033;-70
2021/03/15 02:35:21;;;;;;;2.28;1.70;;;7.10;86.20;;;;;;5071793;28;20064;-70
2021/03/15 02:38:01;;;;;;;2.72;1.52;;;7.10;86.10;;;;;;5072011;28;20032;-71
2021/03/15 02:40:32;;;;;;;1.98;1.60;;;7.10;86.10;;;;;;5071714;28;20029;-71
2021/03/15 02:43:02;;;;;;;2.03;1.48;;;7.10;86.20;;;;;;5073087;28;20028;-71
2021/03/15 02:45:29;;;;;;;1.70;1.60;;;7.10;86.10;;;;;;5072887;28;20108;-71
2021/03/15 02:47:56;;;;;;;1.70;1.60;;;7.00;86.20;;;;;;5071488;28;20498;-71
2021/03/15 02:50:24;;;;;;;2.25;1.55;;;7.10;86.30;;;;;;5072815;28;20047;-71
2021/03/15 02:52:52;;;;;;;2.30;1.50;;;7.00;86.30;;;;;;5071507;28;20111;-71
2021/03/15 02:55:28;;;;;;;2.10;1.20;;;7.00;86.30;;;;;;5071491;28;20078;-71
2021/03/15 02:57:56;;;;;;;1.70;1.23;;;7.00;86.30;;;;;;5071536;28;20036;-71
2021/03/15 03:00:25;;;;;;;1.48;1.33;;;7.10;86.50;;;;;;5071477;28;20063;-71
2021/03/15 03:02:52;;;;;;;1.90;1.30;;;7.10;86.50;;;;;;5072831;28;20059;-70
2021/03/15 03:05:19;;;;;;;1.45;1.13;;;7.10;86.50;;;;;;5072765;28;20392;-71
2021/03/15 03:07:48;;;;;;;1.55;1.20;;;7.10;86.40;;;;;;5075338;28;20028;-70
2021/03/15 03:10:16;;;;;;;1.35;1.25;;;7.10;86.30;;;;;;5075318;28;20390;-71
2021/03/15 03:12:43;;;;;;;1.30;1.20;;;7.10;86.30;;;;;;5075571;28;20035;-70
2021/03/15 03:15:12;;;;;;;1.58;1.25;;;7.10;86.30;;;;;;5077085;28;20052;-70
2021/03/15 03:17:40;;;;;;;2.22;1.30;;;7.10;86.30;;;;;;5076283;28;20045;-71
2021/03/15 03:20:09;;;;;;;1.90;1.20;;;7.20;86.40;;;;;;5076613;28;20021;-70
2021/03/15 03:22:38;;;;;;;2.80;1.40;;;7.20;86.40;;;;;;5075225;28;20148;-71
2021/03/15 03:25:06;;;;;;;1.58;1.45;;;7.20;86.50;;;;;;5076989;28;20024;-71
2021/03/15 03:27:32;;;;;;;1.77;1.38;;;7.30;86.40;;;;;;5076372;28;20031;-71
2021/03/15 03:30:00;;;;;;;2.08;1.50;;;7.30;86.40;;;;;;5076394;28;20021;-71
2021/03/15 03:32:26;;;;;;;1.77;1.25;;;7.30;86.40;;;;;;5075225;28;20028;-71
2021/03/15 03:34:53;;;;;;;3.03;1.50;;;7.20;86.30;;;;;;5076484;28;20479;-71
2021/03/15 03:37:19;;;;;;;1.75;1.60;;;7.20;86.20;;;;;;5076322;28;20065;-71
2021/03/15 03:39:45;;;;;;;1.95;1.77;;;7.20;86.30;;;;;;5076247;28;20426;-71
2021/03/15 03:42:11;;;;;;;1.80;1.63;;;7.20;86.30;;;;;;5074942;28;20051;-71
2021/03/15 03:44:37;;;;;;;2.85;1.70;;;7.20;86.30;;;;;;5074853;28;20028;-71
2021/03/15 03:47:02;;;;;;;3.47;2.50;;;7.30;86.30;;;;;;5074866;28;20387;-71
2021/03/15 03:49:28;;;;;;;3.13;2.47;;;7.20;86.20;;;;;;5074625;28;20034;-71
2021/03/15 03:51:59;;;;;;;2.83;2.38;;;7.20;86.20;;;;;;5074712;28;20051;-71
2021/03/15 03:54:32;;;;;;;3.10;2.67;;;7.20;86.30;;;;;;5074725;28;20036;-71
2021/03/15 03:57:08;;;;;;;4.80;3.00;;;7.20;86.40;;;;;;5076447;28;20108;-71
2021/03/15 03:59:37;;;;;;;5.68;2.72;;;7.20;86.30;;;;;;5076119;28;20407;-71
2021/03/15 04:02:04;;;;;;;4.53;2.95;;;7.20;86.40;;;;;;5074697;28;20020;-71
2021/03/15 04:04:39;;;;;;;4.47;2.92;;;7.30;86.60;;;;;;5075975;28;20368;-71
2021/03/15 04:07:07;;;;;;;4.60;3.08;;;7.30;86.60;;;;;;5075945;28;20037;-72
2021/03/15 04:09:35;;;;;;;4.65;3.10;;;7.20;86.50;;;;;;5074403;28;20491;-71
2021/03/15 04:12:05;;;;;;;4.82;2.97;;;7.20;86.50;;;;;;5074437;28;20029;-71
2021/03/15 04:14:36;;;;;;;3.63;2.92;;;7.20;86.50;;;;;;5074393;28;20032;-71
2021/03/15 04:17:03;;;;;;;5.38;3.15;;;7.20;86.50;;;;;;5075121;28;20044;-71
2021/03/15 04:19:38;;;;;;;3.65;2.80;;;7.20;86.60;;;;;;5074535;28;20039;-71
2021/03/15 04:22:08;;;;;;;7.82;3.92;;;7.20;86.60;;;;;;5073251;28;20107;-72
2021/03/15 04:24:37;;;;;;;5.38;3.33;;;7.20;86.60;;;;;;5074603;28;20036;-71
2021/03/15 04:27:05;;;;;;;4.03;3.30;;;7.20;86.70;;;;;;5073200;28;20029;-71
2021/03/15 04:29:32;;;;;;;5.13;3.10;;;7.10;86.50;;;;;;5072961;28;20040;-71
2021/03/15 04:31:59;;;;;;;5.47;3.35;;;7.10;86.60;;;;;;5073060;28;20487;-72
2021/03/15 04:34:27;;;;;;;6.93;3.42;;;7.20;86.80;;;;;;5072864;28;20108;-72
2021/03/15 04:36:53;;;;;;;8.57;3.25;;;7.20;86.80;;;;;;5074306;28;20017;-71
2021/03/15 04:39:20;;;;;;;4.63;3.63;;;7.20;86.70;;;;;;5072806;28;20031;-71
2021/03/15 04:41:46;;;;;;;8.38;3.50;;;7.20;86.70;;;;;;5074132;28;20024;-71
2021/03/15 04:44:13;;;;;;;7.55;3.47;;;7.20;86.70;;;;;;5072884;28;20020;-71
2021/03/15 04:46:41;;;;;;;5.65;3.63;;;7.20;86.70;;;;;;5072829;28;20070;-71
2021/03/15 04:49:08;;;;;;;7.95;3.50;;;7.20;86.80;;;;;;5072632;28;20135;-71
2021/03/15 04:51:37;;;;;;;5.85;3.90;;;7.20;86.70;;;;;;5072630;28;20497;-71
2021/03/15 04:54:04;;;;;;;6.65;3.50;;;7.20;86.80;;;;;;5072665;28;20017;-71
2021/03/15 04:56:32;;;;;;;6.57;3.50;;;7.20;86.90;;;;;;5072564;28;20021;-71
2021/03/15 04:58:59;;;;;;;6.45;3.92;;;7.20;86.80;;;;;;5073815;28;20017;-71
2021/03/15 05:01:29;;;;;;;7.18;3.28;;;7.20;86.80;;;;;;5072496;28;20025;-71
2021/03/15 05:03:56;;;;;;;7.70;3.40;;;7.20;86.70;;;;;;5072480;28;20025;-71
2021/03/15 05:06:22;;;;;;;9.40;3.38;;;7.20;86.70;;;;;;5074190;28;20456;-72
2021/03/15 05:08:54;;;;;;;6.63;3.28;;;7.20;86.70;;;;;;5072276;28;20031;-71
2021/03/15 05:11:26;;;;;;;6.70;3.10;;;7.20;86.50;;;;;;5073763;28;20028;-71
2021/03/15 05:13:53;;;;;;;7.45;3.00;;;7.10;86.50;;;;;;5073482;28;20016;-71
2021/03/15 05:16:19;;;;;;;7.32;3.22;;;7.10;86.50;;;;;;5072177;28;20033;-72
2021/03/15 05:18:49;;;;;;;9.45;3.10;;;7.10;86.50;;;;;;5053271;28;592678;-71
2021/03/15 05:21:15;;;;;;;6.80;3.30;;;7.10;86.50;;;;;;5073016;28;20032;-71
2021/03/15 05:23:41;;;;;;;6.40;3.17;;;7.10;86.50;;;;;;5074266;28;20078;-71
2021/03/15 05:26:06;;;;;;;5.57;3.25;;;7.10;86.40;;;;;;5072898;28;20029;-71
2021/03/15 05:28:35;;;;;;;7.60;3.05;;;7.10;86.40;;;;;;5073238;28;20032;-71
2021/03/15 05:31:03;;;;;;;6.75;3.20;;;7.10;86.40;;;;;;5072898;28;20029;-72
2021/03/15 05:33:31;;;;;;;7.15;3.03;;;7.20;86.50;;;;;;5074116;28;20028;-71
2021/03/15 05:35:58;;;;;;;5.63;3.17;;;7.20;86.50;;;;;;5074168;28;20043;-71
2021/03/15 05:38:24;;;;;;;5.82;3.25;;;7.20;86.50;;;;;;5072721;28;20020;-71
2021/03/15 05:40:52;;;;;;;7.78;3.38;;;7.20;86.40;;;;;;5074190;28;20377;-71
2021/03/15 05:43:24;;;;;;;7.07;3.78;;;7.20;86.50;;;;;;5073921;28;20024;-71
2021/03/15 05:46:10;;;;;;;8.32;3.63;;;7.20;86.40;;;;;;5073801;28;20060;-71
2021/03/15 05:48:56;;;;;;;5.95;3.60;;;7.20;86.40;;;;;;5073728;28;20054;-71
2021/03/15 05:51:43;;;;;;;7.18;3.35;;;7.20;86.30;;;;;;5073700;28;20089;-72
2021/03/15 05:54:12;;;;;;;6.82;3.78;;;7.20;86.30;;;;;;5072447;28;20086;-71
2021/03/15 05:57:02;;;;;;;9.40;3.55;;;7.10;86.30;;;;;;5073777;28;20024;-71
2021/03/15 05:59:34;;;;;;;7.28;3.20;;;7.00;86.50;;;;;;5072296;28;20025;-71
2021/03/15 06:02:24;;;;;;;7.30;3.00;;;7.00;86.40;;;;;;5073659;28;20039;-72
2021/03/15 06:05:24;;;;;;;6.70;2.88;;;7.10;86.60;;;;;;5073589;28;20095;-71
2021/03/15 06:08:07;;;;;;;7.38;3.00;;;7.00;86.50;;;;;;5071851;28;20031;-71
2021/03/15 06:10:36;;;;;;;6.88;3.08;;;7.00;86.50;;;;;;5071985;28;20029;-71
2021/03/15 06:13:02;;;;;;;6.38;3.25;;;7.00;86.50;;;;;;5073326;28;20028;-71
2021/03/15 06:15:40;;;;;;;7.47;3.17;;;7.00;86.50;;;;;;5072580;28;20071;-71
2021/03/15 06:18:08;;;;;;;5.50;3.08;;;7.00;86.60;;;;;;5073168;28;20076;-71
2021/03/15 06:20:39;;;;;;;8.70;3.53;;;7.10;86.50;;;;;;5073329;28;20032;-71
2021/03/15 06:23:06;;;;;;;7.35;3.40;;;7.10;86.50;;;;;;5071916;28;20032;-71
2021/03/15 06:25:34;;;;;;;7.15;3.20;;;7.10;86.40;;;;;;5073182;28;20021;-70
2021/03/15 06:28:00;;;;;;;4.70;2.95;;;7.10;86.40;;;;;;5072020;28;20126;-71
2021/03/15 06:30:27;;;;;;;9.23;3.00;;;7.10;86.40;;;;;;5073106;28;20472;-70
2021/03/15 06:32:57;;;;;;;7.88;2.85;;;7.10;86.40;;;;;;5073264;28;20040;-70
2021/03/15 06:35:27;;;;;;;5.95;3.10;;;7.10;86.40;;;;;;5071799;28;20479;-70
2021/03/15 06:37:59;;;;;;;8.30;3.30;;;7.10;86.30;;;;;;5073305;28;20029;-70
2021/03/15 06:40:25;;;;;;;7.97;3.13;;;7.20;86.40;;;;;;5072954;28;20036;-70
2021/03/15 06:42:52;;;;;;;6.97;2.97;;;7.20;86.30;;;;;;5072241;28;20119;-71
2021/03/15 06:45:19;;;;;;;8.18;3.40;;;7.20;86.20;;;;;;5071638;28;20044;-70
2021/03/15 06:47:46;;;;;;;4.75;2.92;;;7.20;86.10;;;;;;5071378;28;20115;-70
2021/03/15 06:50:13;;;;;;;5.25;2.85;;;7.30;86.20;;;;;;5072749;28;20111;-70
2021/03/15 06:52:55;;;;;;;7.22;2.92;;;7.20;86.10;;;;;;5072492;28;20027;-70
2021/03/15 06:55:27;;;;;;;4.60;3.08;;;7.30;86.20;;;;;;5071268;28;20028;-70
2021/03/15 06:57:53;;;;;;;6.63;3.15;;;7.30;86.10;;;;;;5071300;28;20040;-70
2021/03/15 07:00:30;;;;;;;8.00;2.78;;;7.30;86.00;;;;;;5071871;28;20515;-71
2021/03/15 07:03:03;;;;;;;9.13;3.20;;;7.40;86.10;;;;;;5072608;28;20107;-70
2021/03/15 07:05:30;;;;;;;6.97;3.08;;;7.40;86.00;;;;;;5071291;28;20514;-71
2021/03/15 07:08:00;;;;;;;10.82;3.67;;;7.40;85.90;;;;;;5072480;28;20503;-70
2021/03/15 07:10:31;;;;;;;8.95;2.88;;;7.40;85.80;;;;;;5071338;28;20079;-70
2021/03/15 07:13:15;;;;;;;8.52;3.63;;;7.40;85.80;;;;;;5072714;28;20048;-69
2021/03/15 07:15:43;;;;;;;8.43;3.00;;;7.40;85.90;;;;;;5071410;28;20028;-70
2021/03/15 07:18:17;;;;;;;8.82;3.22;;;7.40;85.90;;;;;;5070804;28;20037;-72
2021/03/15 07:20:44;;;;;;;7.55;3.08;;;7.40;85.80;;;;;;5072821;28;20032;-72
2021/03/15 07:23:10;;;;;;;7.03;3.20;;;7.40;85.70;;;;;;5072920;28;20033;-72
2021/03/15 07:25:36;;;;;;;7.57;2.70;;;7.40;85.60;;;;;;5072583;28;20032;-72
2021/03/15 07:28:02;;;;;;;7.85;2.40;;;7.50;85.60;;;;;;5071286;28;20032;-74
2021/03/15 07:30:29;;;;;;;9.32;2.97;;;7.50;85.60;;;;;;5071337;28;20103;-73
2021/03/15 07:32:58;;;;;;;9.63;2.55;;;7.50;85.20;;;;;;5072498;28;20025;-72
2021/03/15 07:35:33;;;;;;;7.90;2.95;;;7.50;85.30;;;;;;5071017;28;20025;-73
2021/03/15 07:37:59;;;;;;;9.38;2.50;;;7.50;85.30;;;;;;5071248;28;20029;-74
2021/03/15 07:40:40;;;;;;;9.02;2.58;;;7.50;85.20;;;;;;5072281;28;20059;-74
2021/03/15 07:43:11;;;;;;;9.40;2.08;;;7.50;85.20;;;;;;5070977;28;20020;-75
2021/03/15 07:45:46;;;;;;;10.23;2.50;;;7.60;85.30;;;;;;5072294;28;20033;-75
2021/03/15 07:48:13;;;;;;;12.88;2.53;;;7.60;85.10;;;;;;5072224;28;20033;-75
2021/03/15 07:50:42;;;;;;;8.98;2.33;;;7.60;84.60;;;;;;5072628;28;20029;-80
2021/03/15 07:56:30;;;;;;;8.73;2.28;;;7.70;84.90;;;;;;5076882;28;20082;-73
2021/03/15 07:58:56;;;;;;;7.05;2.22;;;7.70;84.70;;;;;;5075756;28;20033;-73
2021/03/15 08:01:23;;;;;;;10.98;2.92;;;7.80;84.60;;;;;;5075689;28;20481;-73
2021/03/15 08:03:49;;;;;;;12.27;3.10;;;7.90;84.40;;;;;;5074516;28;20027;-74
2021/03/15 08:06:15;;;;;;;8.05;2.10;;;7.90;84.30;;;;;;5074196;28;20036;-72
2021/03/15 08:08:41;;;;;;;11.10;2.50;;;8.00;84.30;;;;;;5074199;28;20036;-72
2021/03/15 08:11:10;;;;;;;7.47;1.90;;;8.10;84.20;;;;;;5075551;28;20023;-72
2021/03/15 08:13:39;;;;;;;7.82;2.03;;;8.20;83.90;;;;;;5074289;28;20070;-72
2021/03/15 08:16:06;;;;;;;7.93;1.90;;;8.30;83.60;;;;;;5075527;28;20033;-72
2021/03/15 08:18:33;;;;;;;8.63;1.90;;;8.30;83.40;;;;;;5074022;28;20462;-73
2021/03/15 08:21:01;;;;;;;6.68;2.03;;;8.30;83.30;;;;;;5074320;28;20075;-76
2021/03/15 08:23:30;;;;;;;17.35;2.28;;;8.20;83.00;;;;;;5074480;28;20036;-76
2021/03/15 08:26:04;;;;;;;10.13;1.95;;;8.20;82.80;;;;;;5074288;28;20035;-72
2021/03/15 08:28:32;;;;;;;8.38;1.92;;;8.20;82.60;;;;;;5074057;28;20086;-72
2021/03/15 08:31:13;;;;;;;10.93;1.60;;;8.10;82.60;;;;;;5075480;28;20057;-72
2021/03/15 08:33:39;;;;;;;6.95;1.80;;;8.10;81.50;;;;;;5075286;28;20503;-72
2021/03/15 08:36:06;;;;;;;10.35;1.98;;;8.10;81.80;;;;;;5075253;28;20020;-71
2021/03/15 08:38:34;;;;;;;11.85;2.50;;;8.10;81.40;;;;;;5073825;28;20463;-72
2021/03/15 08:41:05;;;;;;;8.73;2.00;;;8.10;79.40;;;;;;5075007;28;20063;-72
2021/03/15 08:43:37;;;;;;;13.50;2.03;;;8.10;79.60;;;;;;5073608;28;20066;-72
2021/03/15 08:46:11;;;;;;;6.85;1.63;;;8.20;78.50;;;;;;5075021;28;20042;-71
2021/03/15 08:48:40;;;;;;;10.85;2.65;;;8.20;79.10;;;;;;5073317;28;20040;-71
2021/03/15 08:51:14;;;;;;;6.95;1.90;;;8.30;78.10;;;;;;5074671;28;20028;-71
2021/03/15 08:53:40;;;;;;;8.60;2.30;;;8.30;77.90;;;;;;5073818;28;20085;-71
2021/03/15 08:56:21;;;;;;;7.00;2.20;;;8.30;77.30;;;;;;5075175;28;20506;-71
2021/03/15 08:58:50;;;;;;;7.18;1.75;;;8.30;77.80;;;;;;5073675;28;20326;-70
2021/03/15 09:01:18;;;;;;;9.30;1.80;;;8.40;76.60;;;;;;5073362;28;20048;-71
2021/03/15 09:03:54;;;;;;;8.45;1.90;;;8.50;76.40;;;;;;5073905;28;20059;-72
2021/03/15 09:06:32;;;;;;;10.55;1.52;;;8.60;75.20;;;;;;5074707;28;20037;-73
2021/03/15 09:09:02;;;;;;;5.75;1.45;;;8.60;71.80;;;;;;5073675;28;20032;-72
2021/03/15 09:11:36;;;;;;;6.07;1.90;;;8.60;73.50;;;;;;5073168;28;20126;-73
2021/03/15 09:14:17;;;;;;;8.50;1.58;;;8.70;73.90;;;;;;5073141;28;20111;-72
2021/03/15 09:16:53;;;;;;;9.63;1.90;;;8.80;71.70;;;;;;5074895;28;20028;-73
2021/03/15 09:19:26;;;;;;;8.98;2.10;;;8.80;71.70;;;;;;5074243;28;20076;-73
2021/03/15 09:22:04;;;;;;;6.85;1.60;;;8.80;72.20;;;;;;5072859;28;20123;-72
2021/03/15 09:24:39;;;;;;;6.10;1.42;;;8.80;72.60;;;;;;5074184;28;20419;-73
2021/03/15 09:27:11;;;;;;;9.48;1.63;;;8.80;71.70;;;;;;5073045;28;20036;-71
2021/03/15 09:29:38;;;;;;;7.82;1.50;;;8.70;72.00;;;;;;5072798;28;20039;-71
2021/03/15 09:32:11;;;;;;;7.25;1.60;;;8.70;71.70;;;;;;5072907;28;20399;-72
2021/03/15 09:34:37;;;;;;;7.45;1.45;;;8.70;71.80;;;;;;5074120;28;20388;-72
2021/03/15 09:37:05;;;;;;;5.18;1.25;;;8.60;71.70;;;;;;5072759;28;20021;-72
2021/03/15 09:39:31;;;;;;;6.78;1.52;;;8.60;72.50;;;;;;5072641;28;20048;-73
2021/03/15 09:42:01;;;;;;;9.38;1.40;;;8.70;73.30;;;;;;5072906;28;20444;-73
2021/03/15 09:44:31;;;;;;;5.57;1.20;;;8.80;71.70;;;;;;5073842;28;20090;-72
2021/03/15 09:46:59;;;;;;;8.30;1.63;;;8.90;72.10;;;;;;5073868;28;20043;-72
2021/03/15 09:49:51;;;;;;;7.07;1.67;;;9.00;72.60;;;;;;5072445;28;20047;-72
2021/03/15 09:52:21;;;;;;;9.40;2.63;;;9.10;71.40;;;;;;5071137;28;20126;-72
2021/03/15 09:54:55;;;;;;;11.30;2.28;;;9.20;71.50;;;;;;5073909;28;20130;-72
2021/03/15 09:57:22;;;;;;;5.00;1.73;;;9.10;71.30;;;;;;5073483;28;20113;-73
2021/03/15 09:59:48;;;;;;;6.22;1.23;;;9.20;71.90;;;;;;5072876;28;20434;-72
2021/03/15 10:02:35;;;;;;;7.90;1.77;;;9.30;72.00;;;;;;5072153;28;20119;-72
2021/03/15 10:05:01;;;;;;;5.53;1.50;;;9.20;71.10;;;;;;5073231;28;20133;-72
2021/03/15 10:07:26;;;;;;;6.85;1.60;;;9.20;70.10;;;;;;5073495;28;20409;-73
2021/03/15 10:09:52;;;;;;;4.13;1.30;;;9.30;70.20;;;;;;5071770;28;20028;-73
2021/03/15 10:12:22;;;;;;;6.03;1.13;;;9.20;70.20;;;;;;5071816;28;20033;-73
2021/03/15 10:15:04;;;;;;;7.00;1.45;;;9.20;70.30;;;;;;5071688;28;20499;-74
2021/03/15 10:17:30;;;;;;;8.25;1.42;;;9.20;70.90;;;;;;5072025;28;20384;-74
2021/03/15 10:19:56;;;;;;;6.43;1.48;;;9.20;71.20;;;;;;5071635;28;20044;-74
2021/03/15 10:22:22;;;;;;;5.18;1.20;;;9.30;71.50;;;;;;5071853;28;20029;-74
2021/03/15 10:24:52;;;;;;;5.82;1.45;;;9.40;71.60;;;;;;5073421;28;20078;-75
2021/03/15 10:27:24;;;;;;;6.28;2.85;;;9.50;70.30;;;;;;5073193;28;20029;-74
2021/03/15 10:30:08;;;;;;;5.97;1.52;;;9.50;70.60;;;;;;5072980;28;20035;-75
2021/03/15 10:32:33;;;;;;;;;;;9.60;70.20;;;;;;5072232;28;20028;-74
2021/03/15 10:35:05;;;;;;;7.38;1.40;;;9.60;69.80;;;;;;5071851;28;19915;-74
2021/03/15 10:37:33;;;;;;;7.75;1.63;;;9.60;69.30;;;;;;5073362;28;20487;-74
2021/03/15 10:39:59;;;;;;;6.85;1.55;;;9.60;70.30;;;;;;5073183;28;20047;-74
2021/03/15 10:42:26;;;;;;;6.65;1.83;;;9.80;69.80;;;;;;5071553;28;20479;-74
2021/03/15 10:44:53;;;;;;;10.80;1.58;;;9.70;69.90;;;;;;5071827;28;20035;-74
2021/03/15 10:47:34;;;;;;;7.28;1.42;;;9.80;70.30;;;;;;5071621;28;20067;-74
2021/03/15 10:50:01;;;;;;;15.65;2.38;;;9.70;69.90;;;;;;5073082;28;20024;-75
2021/03/15 10:52:32;;;;;;;10.02;1.50;;;9.70;70.10;;;;;;5071400;28;20024;-75
2021/03/15 10:55:14;;;;;;;10.23;1.85;;;9.70;70.60;;;;;;5071641;28;20476;-74
2021/03/15 10:58:06;;;;;;;12.10;2.22;;;9.80;70.80;;;;;;5071553;28;20447;-74
2021/03/15 11:00:39;;;;;;;14.30;3.13;;;9.70;70.60;;;;;;5072678;28;20024;-74
2021/03/15 11:03:06;;;;;;;7.85;1.80;;;9.70;70.80;;;;;;5072747;28;20028;-75
2021/03/15 11:05:32;;;;;;;7.28;1.70;;;9.70;71.10;;;;;;5072804;28;20025;-74
2021/03/15 11:07:58;;;;;;;5.82;1.40;;;9.70;70.60;;;;;;5073056;28;20031;-75
2021/03/15 11:10:29;;;;;;;9.52;1.77;;;9.80;71.10;;;;;;5072586;28;20116;-74
2021/03/15 11:12:57;;;;;;;7.70;1.95;;;9.90;70.00;;;;;;5072887;28;20119;-73
2021/03/15 11:15:29;;;;;;;9.15;1.85;;;9.90;69.90;;;;;;5072614;28;20032;-74
2021/03/15 11:18:21;;;;;;;8.07;1.50;;;9.90;68.80;;;;;;5072403;28;20107;-73
2021/03/15 11:20:58;;;;;;;6.10;1.40;;;9.80;68.70;;;;;;5072761;28;20397;-74
2021/03/15 11:23:36;;;;;;;7.57;1.30;;;9.70;67.40;;;;;;5072698;28;20449;-74
2021/03/15 11:26:11;;;;;;;7.10;1.35;;;9.70;69.70;;;;;;5071383;28;20020;-74
2021/03/15 11:28:41;;;;;;;4.05;1.38;;;9.60;68.80;;;;;;5075065;28;20032;-74
2021/03/15 11:31:19;;;;;;;6.95;1.67;;;9.50;71.20;;;;;;5075154;28;20052;-74
2021/03/15 11:33:51;;;;;;;7.78;1.63;;;9.10;72.80;;;;;;5076276;28;20060;-74
2021/03/15 11:36:19;;;;;;;5.78;1.88;;;8.70;75.40;;;;;;5074865;28;20028;-73
2021/03/15 11:38:51;;;;;;;6.30;1.20;;;8.30;76.90;;;;;;5076245;28;20038;-74
2021/03/15 11:41:19;;;;;;;8.73;1.58;;;8.10;78.10;;;;;;5075044;28;20044;-73
2021/03/15 11:43:45;;;;;;;7.68;1.80;;;8.00;79.20;;;;;;5074703;28;20035;-74
2021/03/15 11:46:10;;;;;;;6.93;2.00;;;7.90;79.80;;;;;;5075993;28;20029;-73
2021/03/15 11:48:36;;;;;;;10.18;1.80;;;8.00;80.50;;;;;;5076200;28;20036;-73
2021/03/15 11:51:03;;;;;;;5.55;1.48;;;8.10;81.30;;;;;;5075783;28;20070;-73
2021/03/15 11:53:29;;;;;;;5.95;1.40;;;8.20;81.90;;;;;;5075857;28;20033;-74
2021/03/15 11:55:54;;;;;;;6.63;1.33;;;8.30;82.10;;;;;;5074592;28;20499;-75
2021/03/15 11:58:20;;;;;;;9.50;1.60;;;8.30;81.30;;;;;;5075848;28;20491;-74
2021/03/15 12:00:45;;;;;;;9.40;1.70;;;8.30;81.70;;;;;;5074481;28;20493;-74
2021/03/15 12:03:11;;;;;;;5.57;1.20;;;8.30;81.70;;;;;;5074487;28;20078;-73
2021/03/15 12:05:37;;;;;;;6.85;1.70;;;8.30;81.90;;;;;;5075707;28;20187;-73
2021/03/15 12:08:03;;;;;;;10.52;2.00;;;8.30;82.00;;;;;;5075513;28;20082;-73
2021/03/15 12:10:29;;;;;;;10.75;2.13;;;8.40;82.50;;;;;;5074312;28;20391;-74
2021/03/15 12:12:54;;;;;;;9.55;1.90;;;8.40;82.10;;;;;;5075638;28;20024;-74
2021/03/15 12:15:20;;;;;;;10.25;1.80;;;8.30;82.10;;;;;;5075765;28;20039;-74
2021/03/15 12:17:47;;;;;;;11.02;2.00;;;8.20;82.10;;;;;;5074611;28;20035;-74
2021/03/15 12:20:12;;;;;;;10.00;1.88;;;8.20;82.40;;;;;;5074036;28;20094;-73
2021/03/15 12:22:39;;;;;;;9.35;2.05;;;8.20;82.00;;;;;;5075678;28;20025;-74
2021/03/15 12:25:06;;;;;;;15.15;2.55;;;8.30;82.00;;;;;;5074160;28;20426;-74
2021/03/15 12:27:32;;;;;;;8.85;1.95;;;8.30;81.40;;;;;;5075318;28;20024;-74
2021/03/15 12:29:57;;;;;;;6.35;1.52;;;8.30;80.90;;;;;;5073899;28;20028;-74
2021/03/15 12:32:23;;;;;;;5.57;1.38;;;8.20;80.90;;;;;;5075499;28;20533;-74
2021/03/15 12:34:49;;;;;;;13.57;2.03;;;8.20;82.10;;;;;;5075396;28;20043;-75
2021/03/15 12:37:15;;;;;;;7.78;1.70;;;8.30;80.40;;;;;;5073872;28;20086;-74
2021/03/15 12:39:41;;;;;;;7.22;1.83;;;8.40;80.80;;;;;;5073500;28;20028;-74
2021/03/15 12:42:07;;;;;;;12.77;1.83;;;8.60;81.10;;;;;;5075384;28;20040;-74
2021/03/15 12:44:32;;;;;;;7.57;1.77;;;8.80;80.20;;;;;;5075256;28;20024;-73
2021/03/15 12:46:58;;;;;;;9.05;1.67;;;8.80;78.90;;;;;;5075120;28;20032;-73
2021/03/15 12:49:24;;;;;;;9.85;1.83;;;8.80;78.90;;;;;;5073363;28;20476;-73
2021/03/15 12:51:49;;;;;;;8.77;1.98;;;8.80;79.30;;;;;;5073377;28;20067;-74
2021/03/15 12:54:15;;;;;;;7.65;1.42;;;8.80;79.20;;;;;;5073599;28;20028;-74
2021/03/15 12:56:41;;;;;;;6.15;1.45;;;8.80;79.60;;;;;;5074989;28;20389;-74
2021/03/15 12:59:07;;;;;;;5.13;1.30;;;8.70;80.00;;;;;;5073586;28;20090;-74
2021/03/15 13:01:32;;;;;;;9.35;1.27;;;8.50;80.30;;;;;;5075120;28;20048;-74
2021/03/15 13:03:58;;;;;;;6.88;1.30;;;8.40;79.80;;;;;;5073470;28;20368;-74
2021/03/15 13:06:24;;;;;;;7.13;1.40;;;8.40;79.80;;;;;;5074713;28;20365;-74
2021/03/15 13:08:50;;;;;;;6.63;1.45;;;8.30;80.40;;;;;;5073345;28;20032;-74
2021/03/15 13:11:17;;;;;;;7.55;1.70;;;8.20;80.10;;;;;;5073484;28;20028;-73